Time;durP1;ratioP1;P1;durP2;ratioP2;P2;SDS_P1;SDS_P2;PMS_P1;PMS_P2;Temp;Humidity;BMP_temperature;BMP_pressure;BME280_temperature;BME280_humidity;BME280_pressure;Samples;Min_cycle;Max_cycle;Signal;HPM_P1;HPM_P2
2022/04/10 00:00:43;;;;;;;2.45;1.80;;;3.40;99.90;;;;;;4991403;28;20037;-73
2022/04/10 00:03:10;;;;;;;2.13;2.03;;;3.30;99.90;;;;;;5008338;28;20034;-72
2022/04/10 00:05:35;;;;;;;6.13;3.15;;;3.30;99.90;;;;;;5008697;28;20049;-72
2022/04/10 00:08:02;;;;;;;6.10;3.63;;;3.20;99.90;;;;;;4992051;28;20042;-72
2022/04/10 00:10:28;;;;;;;1.92;1.83;;;3.20;99.90;;;;;;4991682;28;20072;-73
2022/04/10 00:12:54;;;;;;;2.17;2.08;;;3.20;99.90;;;;;;5006602;28;20037;-73
2022/04/10 00:15:20;;;;;;;2.13;2.03;;;3.10;99.90;;;;;;4990339;28;20041;-73
2022/04/10 00:17:45;;;;;;;1.50;1.50;;;3.20;99.90;;;;;;5005202;28;20034;-72
2022/04/10 00:20:11;;;;;;;1.85;1.75;;;3.10;99.90;;;;;;5008730;28;20159;-73
2022/04/10 00:22:41;;;;;;;3.30;2.00;;;3.10;99.90;;;;;;5007633;28;20046;-73
2022/04/10 00:25:08;;;;;;;3.80;2.65;;;3.10;99.90;;;;;;5003035;28;20053;-73
2022/04/10 00:27:33;;;;;;;2.85;2.47;;;3.10;99.90;;;;;;5008125;28;20409;-72
2022/04/10 00:29:59;;;;;;;3.63;2.38;;;3.10;99.90;;;;;;5010384;28;20048;-72
2022/04/10 00:32:28;;;;;;;2.55;2.45;;;3.10;99.90;;;;;;5012276;28;20822;-73
2022/04/10 00:34:54;;;;;;;1.17;1.17;;;3.00;99.90;;;;;;5007326;28;20124;-73
2022/04/10 00:37:20;;;;;;;2.53;2.38;;;3.00;99.90;;;;;;5011113;28;20067;-72
2022/04/10 00:39:45;;;;;;;2.70;2.50;;;3.00;99.90;;;;;;5011774;28;20040;-73
2022/04/10 00:42:11;;;;;;;7.55;2.75;;;3.10;99.90;;;;;;4995407;28;20455;-73
2022/04/10 00:44:37;;;;;;;3.28;2.13;;;3.10;99.90;;;;;;5010265;28;20033;-73
2022/04/10 00:47:03;;;;;;;2.35;2.03;;;3.20;99.90;;;;;;5012199;28;20053;-73
2022/04/10 00:49:28;;;;;;;1.77;1.67;;;3.20;99.90;;;;;;4994977;28;20044;-73
2022/04/10 00:51:56;;;;;;;4.25;3.05;;;3.30;99.90;;;;;;5011541;28;20037;-73
2022/04/10 00:54:26;;;;;;;1.88;1.77;;;3.30;99.90;;;;;;5011553;28;20041;-73
2022/04/10 00:56:53;;;;;;;1.67;1.67;;;3.30;99.90;;;;;;5024018;28;20037;-73
2022/04/10 00:59:19;;;;;;;2.25;2.05;;;3.30;99.90;;;;;;4993693;28;20049;-73
2022/04/10 01:01:45;;;;;;;2.58;2.47;;;3.30;99.90;;;;;;5009190;28;20525;-73
2022/04/10 01:04:16;;;;;;;1.70;1.70;;;3.30;99.90;;;;;;5009210;28;20553;-73
2022/04/10 01:06:42;;;;;;;2.10;2.00;;;3.20;99.90;;;;;;4994156;28;20065;-73
2022/04/10 01:09:08;;;;;;;1.55;1.55;;;3.20;99.90;;;;;;5009877;28;20100;-73
2022/04/10 01:11:35;;;;;;;1.50;1.50;;;3.20;99.90;;;;;;5010138;28;20041;-73
2022/04/10 01:14:04;;;;;;;1.40;1.40;;;3.10;99.90;;;;;;5007548;28;20394;-73
2022/04/10 01:16:31;;;;;;;2.17;2.08;;;3.10;99.90;;;;;;5009366;28;20126;-73
2022/04/10 01:18:57;;;;;;;1.50;1.50;;;3.00;99.90;;;;;;5010223;28;20071;-73
2022/04/10 01:21:25;;;;;;;1.65;1.65;;;2.80;99.90;;;;;;5009314;28;20887;-73
2022/04/10 01:23:56;;;;;;;1.60;1.60;;;2.70;99.90;;;;;;4994698;28;20043;-73
2022/04/10 01:26:23;;;;;;;1.60;1.60;;;2.60;99.90;;;;;;5008222;28;20178;-73
2022/04/10 01:28:57;;;;;;;1.70;1.70;;;2.50;99.90;;;;;;5008261;28;20072;-73
2022/04/10 01:31:22;;;;;;;1.60;1.60;;;2.30;99.90;;;;;;4991465;28;20051;-72
2022/04/10 01:33:49;;;;;;;1.75;1.75;;;2.20;99.90;;;;;;4992021;28;20037;-73
2022/04/10 01:36:15;;;;;;;2.00;1.90;;;2.10;99.90;;;;;;5008092;28;20084;-73
2022/04/10 01:38:42;;;;;;;2.20;2.10;;;2.10;99.90;;;;;;5009682;28;20052;-73
2022/04/10 01:41:12;;;;;;;2.00;1.90;;;2.10;99.90;;;;;;5008912;28;20035;-73
2022/04/10 01:43:45;;;;;;;1.88;1.80;;;2.00;99.90;;;;;;5010895;28;20041;-73
2022/04/10 01:46:15;;;;;;;10.25;3.30;;;2.00;99.90;;;;;;5010336;28;20485;-72
2022/04/10 01:48:40;;;;;;;2.28;2.17;;;1.90;99.90;;;;;;5008133;28;20520;-73
2022/04/10 01:51:07;;;;;;;2.28;2.17;;;1.90;99.90;;;;;;5009753;28;20045;-73
2022/04/10 01:53:32;;;;;;;2.10;2.00;;;1.90;99.90;;;;;;4992777;28;20426;-73
2022/04/10 01:55:58;;;;;;;1.70;1.70;;;1.90;99.90;;;;;;5010334;28;20049;-72
2022/04/10 01:58:23;;;;;;;1.67;1.67;;;1.90;99.90;;;;;;5010234;28;20045;-73
2022/04/10 02:00:49;;;;;;;1.80;1.80;;;1.90;99.90;;;;;;4994417;28;20061;-72
2022/04/10 02:03:15;;;;;;;6.97;2.25;;;1.90;99.90;;;;;;5007757;28;20382;-72
2022/04/10 02:05:40;;;;;;;3.63;2.90;;;1.80;99.90;;;;;;5009060;28;20099;-72
2022/04/10 02:08:06;;;;;;;2.60;2.50;;;1.80;99.90;;;;;;5005645;28;20084;-73
2022/04/10 02:10:33;;;;;;;11.35;5.40;;;1.80;99.90;;;;;;5008128;28;20056;-72
2022/04/10 02:12:58;;;;;;;2.72;2.63;;;1.80;99.90;;;;;;5009626;28;20114;-72
2022/04/10 02:15:24;;;;;;;2.50;2.40;;;1.90;99.90;;;;;;5010376;28;20045;-73
2022/04/10 02:17:50;;;;;;;2.22;2.13;;;1.90;99.90;;;;;;5009503;28;20055;-72
2022/04/10 02:20:15;;;;;;;3.42;3.22;;;1.90;99.90;;;;;;5009601;28;20041;-73
2022/04/10 02:22:41;;;;;;;2.20;2.10;;;1.90;99.90;;;;;;4993778;28;20167;-72
2022/04/10 02:25:07;;;;;;;2.25;2.15;;;1.90;99.90;;;;;;4993166;28;20122;-73
2022/04/10 02:27:33;;;;;;;2.13;2.03;;;1.80;99.90;;;;;;4992848;28;20045;-72
2022/04/10 02:29:59;;;;;;;4.32;4.03;;;1.80;99.90;;;;;;5009413;28;20041;-72
2022/04/10 02:32:24;;;;;;;2.08;1.98;;;1.70;99.90;;;;;;5009820;28;20087;-72
2022/04/10 02:34:50;;;;;;;2.70;2.60;;;1.70;99.90;;;;;;4991533;28;20095;-72
2022/04/10 02:37:15;;;;;;;2.10;2.00;;;1.70;99.90;;;;;;5008825;28;20045;-72
2022/04/10 02:39:41;;;;;;;3.40;2.70;;;1.80;99.90;;;;;;5005692;28;20048;-72
2022/04/10 02:42:07;;;;;;;5.72;2.70;;;1.80;99.90;;;;;;5009636;28;21871;-73
2022/04/10 02:44:33;;;;;;;12.20;3.53;;;1.90;99.90;;;;;;4991776;28;20034;-72
2022/04/10 02:46:58;;;;;;;4.22;3.08;;;2.00;99.90;;;;;;4991651;28;20033;-73
2022/04/10 02:49:24;;;;;;;3.00;2.80;;;2.10;99.90;;;;;;5009206;28;20109;-72
2022/04/10 02:51:49;;;;;;;7.63;3.47;;;2.20;99.90;;;;;;4993492;28;20096;-72
2022/04/10 02:54:18;;;;;;;2.40;2.30;;;2.30;99.90;;;;;;4993105;28;20099;-72
2022/04/10 02:56:43;;;;;;;2.00;1.90;;;2.40;99.90;;;;;;5007431;28;20051;-72
2022/04/10 02:59:09;;;;;;;2.67;2.58;;;2.40;99.90;;;;;;5008760;28;20042;-72
2022/04/10 03:01:35;;;;;;;2.45;2.35;;;2.50;99.90;;;;;;4992506;28;20167;-72
2022/04/10 03:04:01;;;;;;;2.10;2.00;;;2.50;99.90;;;;;;5007149;28;20128;-72
2022/04/10 03:06:26;;;;;;;2.35;2.25;;;2.50;99.90;;;;;;4992872;28;20038;-72
2022/04/10 03:08:52;;;;;;;2.53;2.42;;;2.50;99.90;;;;;;5009655;28;20048;-72
2022/04/10 03:11:23;;;;;;;2.00;1.90;;;2.50;99.90;;;;;;5007564;28;20041;-72
2022/04/10 03:13:49;;;;;;;2.22;2.13;;;2.50;99.90;;;;;;5007738;28;20049;-73
2022/04/10 03:16:15;;;;;;;2.75;2.28;;;2.50;99.90;;;;;;4992818;28;20562;-72
2022/04/10 03:18:41;;;;;;;3.55;2.47;;;2.50;99.90;;;;;;4992058;28;20045;-72
2022/04/10 03:21:06;;;;;;;1.88;1.80;;;2.60;99.90;;;;;;5008621;28;20064;-72
2022/04/10 03:23:32;;;;;;;6.38;2.25;;;2.60;99.90;;;;;;4993138;28;20037;-72
2022/04/10 03:25:58;;;;;;;1.95;1.85;;;2.80;99.90;;;;;;4992360;28;20041;-73
2022/04/10 03:28:23;;;;;;;2.05;1.95;;;2.90;99.90;;;;;;5008130;28;20107;-72
2022/04/10 03:30:49;;;;;;;2.38;2.25;;;3.10;99.90;;;;;;5009124;28;20033;-72
2022/04/10 03:33:14;;;;;;;3.22;1.98;;;3.20;99.90;;;;;;5008671;28;20103;-73
2022/04/10 03:35:40;;;;;;;2.47;2.25;;;3.30;99.90;;;;;;5007399;28;20069;-72
2022/04/10 03:38:06;;;;;;;3.30;2.00;;;3.40;99.90;;;;;;4991148;28;20152;-73
2022/04/10 03:40:31;;;;;;;1.73;1.73;;;3.40;99.90;;;;;;4989477;28;20571;-72
2022/04/10 03:42:57;;;;;;;2.33;2.15;;;3.40;99.90;;;;;;5007036;28;20041;-72
2022/04/10 03:45:22;;;;;;;2.00;1.90;;;3.40;99.90;;;;;;5007918;28;20044;-72
2022/04/10 03:47:48;;;;;;;1.88;1.77;;;3.40;99.90;;;;;;5006771;28;21656;-72
2022/04/10 03:50:14;;;;;;;2.33;2.22;;;3.40;99.90;;;;;;5009101;28;20041;-73
2022/04/10 03:52:39;;;;;;;5.85;4.32;;;3.40;99.90;;;;;;4992096;28;20136;-72
2022/04/10 03:55:05;;;;;;;4.82;4.55;;;3.40;99.90;;;;;;5008701;28;20056;-72
2022/04/10 03:57:31;;;;;;;6.57;6.22;;;3.40;99.90;;;;;;4991074;28;20536;-72
2022/04/10 03:59:57;;;;;;;5.65;5.35;;;3.30;99.90;;;;;;5008816;28;20133;-73
2022/04/10 04:02:22;;;;;;;5.28;4.97;;;3.20;99.90;;;;;;5006884;28;20034;-73
2022/04/10 04:04:50;;;;;;;6.00;5.70;;;3.10;99.90;;;;;;5007860;28;20041;-73
2022/04/10 04:07:16;;;;;;;6.55;6.20;;;3.00;99.90;;;;;;5010669;28;20045;-73
2022/04/10 04:09:42;;;;;;;6.30;5.93;;;2.90;99.90;;;;;;5012078;28;20136;-72
2022/04/10 04:12:08;;;;;;;6.10;5.80;;;2.80;99.90;;;;;;5011171;28;20042;-73
2022/04/10 04:14:35;;;;;;;7.68;7.28;;;2.80;99.90;;;;;;5010175;28;20048;-73
2022/04/10 04:17:01;;;;;;;5.45;4.85;;;2.70;99.90;;;;;;4994354;28;20041;-72
2022/04/10 04:19:26;;;;;;;9.25;8.55;;;2.70;99.90;;;;;;4996142;28;20041;-72
2022/04/10 04:21:52;;;;;;;7.35;6.95;;;2.70;99.90;;;;;;5011961;28;20041;-73
2022/04/10 04:24:17;;;;;;;5.32;5.03;;;2.70;99.90;;;;;;5012092;28;20036;-73
2022/04/10 04:26:43;;;;;;;5.57;5.28;;;2.70;99.90;;;;;;5006639;28;20132;-73
2022/04/10 04:29:08;;;;;;;7.00;6.47;;;2.70;99.90;;;;;;4993459;28;20045;-73
2022/04/10 04:31:34;;;;;;;6.35;4.85;;;2.80;99.90;;;;;;5010205;28;20075;-73
2022/04/10 04:34:00;;;;;;;6.72;6.30;;;2.80;99.90;;;;;;5011112;28;20040;-73
2022/04/10 04:36:25;;;;;;;5.05;4.75;;;2.80;99.90;;;;;;5008673;28;20059;-73
2022/04/10 04:38:52;;;;;;;3.78;3.58;;;2.80;99.90;;;;;;5012250;28;20400;-73
2022/04/10 04:41:18;;;;;;;3.95;3.75;;;2.70;99.90;;;;;;4994903;28;20413;-73
2022/04/10 04:43:44;;;;;;;5.15;4.85;;;2.70;99.90;;;;;;5010793;28;20037;-73
2022/04/10 04:46:09;;;;;;;3.95;3.75;;;2.70;99.90;;;;;;5011488;28;20099;-73
2022/04/10 04:48:35;;;;;;;4.95;4.65;;;2.60;99.90;;;;;;4994986;28;20087;-73
2022/04/10 04:51:02;;;;;;;3.03;2.90;;;2.60;99.90;;;;;;5010491;28;20099;-73
2022/04/10 04:53:28;;;;;;;5.53;3.42;;;2.60;99.90;;;;;;5012419;28;20050;-73
2022/04/10 04:55:53;;;;;;;4.57;4.35;;;2.50;99.90;;;;;;5010820;28;20049;-73
2022/04/10 04:58:19;;;;;;;5.70;5.30;;;2.50;99.90;;;;;;4992796;28;20033;-73
2022/04/10 05:00:47;;;;;;;4.90;4.60;;;2.50;99.90;;;;;;4993186;28;20034;-73
2022/04/10 05:03:15;;;;;;;5.45;5.15;;;2.50;99.90;;;;;;5025182;28;20045;-74
2022/04/10 05:05:41;;;;;;;4.43;4.22;;;2.50;99.90;;;;;;5008249;28;20034;-75
2022/04/10 05:08:07;;;;;;;4.60;4.30;;;2.40;99.90;;;;;;5011679;28;20045;-74
2022/04/10 05:10:32;;;;;;;5.40;5.00;;;2.50;99.90;;;;;;5010247;28;20080;-74
2022/04/10 05:12:58;;;;;;;6.80;6.43;;;2.50;99.90;;;;;;5009769;28;20065;-74
2022/04/10 05:15:24;;;;;;;20.27;4.35;;;2.50;99.90;;;;;;5009151;28;20076;-74
2022/04/10 05:17:51;;;;;;;4.00;3.80;;;2.60;99.90;;;;;;4991525;28;20037;-73
2022/04/10 05:20:17;;;;;;;3.95;3.75;;;2.60;99.90;;;;;;4991867;28;20046;-72
2022/04/10 05:22:43;;;;;;;3.30;3.10;;;2.60;99.90;;;;;;5011646;28;20036;-73
2022/04/10 05:25:09;;;;;;;3.55;3.35;;;2.70;99.90;;;;;;5011571;28;20525;-73
2022/04/10 05:27:35;;;;;;;5.47;5.18;;;2.70;99.90;;;;;;4993370;28;20079;-73
2022/04/10 05:30:01;;;;;;;6.45;6.07;;;2.70;99.90;;;;;;5008475;28;20182;-72
2022/04/10 05:32:27;;;;;;;9.80;5.88;;;2.80;99.90;;;;;;4991390;28;20040;-72
2022/04/10 05:34:52;;;;;;;4.07;3.88;;;2.80;99.90;;;;;;5024205;28;20037;-72
2022/04/10 05:37:18;;;;;;;4.47;4.28;;;2.90;99.90;;;;;;5011039;28;20759;-72
2022/04/10 05:39:43;;;;;;;5.10;4.80;;;2.90;99.90;;;;;;4993262;28;20041;-74
2022/04/10 05:42:09;;;;;;;4.28;4.07;;;3.00;99.90;;;;;;5010049;28;20783;-72
2022/04/10 05:44:35;;;;;;;3.80;3.60;;;3.10;99.90;;;;;;4990971;28;20038;-72
2022/04/10 05:47:01;;;;;;;4.68;4.47;;;3.20;99.90;;;;;;4992489;28;20567;-72
2022/04/10 05:49:27;;;;;;;5.20;4.90;;;3.30;99.90;;;;;;5008148;28;20040;-72
2022/04/10 05:51:53;;;;;;;4.50;4.20;;;3.40;99.90;;;;;;4990233;28;20718;-72
2022/04/10 05:54:18;;;;;;;3.85;3.63;;;3.40;99.90;;;;;;5010060;28;20525;-72
2022/04/10 05:56:44;;;;;;;6.70;6.15;;;3.40;99.90;;;;;;5009445;28;20124;-73
2022/04/10 05:59:10;;;;;;;4.28;4.07;;;3.40;99.90;;;;;;4994488;28;20094;-72
2022/04/10 06:01:35;;;;;;;18.58;5.18;;;3.40;99.90;;;;;;5009492;28;20679;-73
2022/04/10 06:04:01;;;;;;;4.57;4.28;;;3.50;99.90;;;;;;5006895;28;20058;-73
2022/04/10 06:06:26;;;;;;;6.55;5.57;;;3.60;99.90;;;;;;4992138;28;20044;-73
2022/04/10 06:08:52;;;;;;;4.20;4.00;;;3.60;99.90;;;;;;5010406;28;20599;-73
2022/04/10 06:11:17;;;;;;;6.50;6.10;;;3.60;99.90;;;;;;4990178;28;20136;-73
2022/04/10 06:13:43;;;;;;;4.00;3.80;;;3.70;99.90;;;;;;5008140;28;20764;-73
2022/04/10 06:16:09;;;;;;;4.25;4.05;;;4.10;99.90;;;;;;4992058;28;20041;-73
2022/04/10 06:18:34;;;;;;;4.57;4.38;;;4.20;99.90;;;;;;5009957;28;20037;-73
2022/04/10 06:21:00;;;;;;;3.83;3.63;;;4.50;99.90;;;;;;5009829;28;20033;-73
2022/04/10 06:23:26;;;;;;;3.97;3.72;;;4.70;99.90;;;;;;5008444;28;20497;-73
2022/04/10 06:25:52;;;;;;;5.88;5.57;;;4.90;99.90;;;;;;5009026;28;20049;-73
2022/04/10 06:28:17;;;;;;;10.48;5.05;;;5.20;99.90;;;;;;5006753;28;20041;-73
2022/04/10 06:30:44;;;;;;;3.97;3.78;;;5.50;99.90;;;;;;4991579;28;20120;-73
2022/04/10 06:33:10;;;;;;;6.57;5.72;;;5.50;99.90;;;;;;5008880;28;20041;-73
2022/04/10 06:35:35;;;;;;;2.88;2.78;;;5.30;99.90;;;;;;5026101;28;20033;-73
2022/04/10 06:38:02;;;;;;;4.70;3.58;;;5.10;99.90;;;;;;5026309;28;20049;-73
2022/04/10 06:40:28;;;;;;;4.20;3.90;;;4.90;99.90;;;;;;5005713;28;20125;-73
2022/04/10 06:42:53;;;;;;;3.58;3.38;;;4.80;99.90;;;;;;4991884;28;20120;-73
2022/04/10 06:45:20;;;;;;;5.25;4.95;;;4.60;99.90;;;;;;4993728;28;20508;-73
2022/04/10 06:47:46;;;;;;;8.80;4.50;;;4.60;99.90;;;;;;5008705;28;20045;-73
2022/04/10 06:50:12;;;;;;;3.85;3.65;;;4.60;99.90;;;;;;4992822;28;20044;-73
2022/04/10 06:52:38;;;;;;;4.32;4.03;;;4.60;99.90;;;;;;4987288;28;20504;-73
2022/04/10 06:55:04;;;;;;;12.45;4.90;;;4.60;99.90;;;;;;4992414;28;20129;-73
2022/04/10 06:57:29;;;;;;;4.05;3.78;;;4.60;99.90;;;;;;5025784;28;20041;-73
2022/04/10 06:59:55;;;;;;;3.00;2.88;;;4.70;99.90;;;;;;4992535;28;20151;-73
2022/04/10 07:02:20;;;;;;;4.22;4.03;;;4.80;99.90;;;;;;5005908;28;20046;-73
2022/04/10 07:04:46;;;;;;;4.35;3.92;;;4.90;99.90;;;;;;5009023;28;20103;-73
2022/04/10 07:07:12;;;;;;;4.03;3.80;;;5.20;99.90;;;;;;4992763;28;20041;-73
2022/04/10 07:09:38;;;;;;;2.50;2.40;;;5.30;99.90;;;;;;4992927;28;20416;-73
2022/04/10 07:12:03;;;;;;;3.45;3.25;;;5.50;99.90;;;;;;5007713;28;20045;-73
2022/04/10 07:14:29;;;;;;;12.95;3.85;;;5.80;99.90;;;;;;5008732;28;20548;-73
2022/04/10 07:16:55;;;;;;;5.70;2.50;;;5.90;99.90;;;;;;5005900;28;20413;-73
2022/04/10 07:19:20;;;;;;;4.72;3.78;;;6.00;99.90;;;;;;5007937;28;20414;-73
2022/04/10 07:24:30;;;;;;;6.30;5.63;;;6.10;99.90;;;;;;5007455;28;20041;-73
2022/04/10 07:26:56;;;;;;;5.20;3.28;;;6.10;99.90;;;;;;4991659;28;20099;-72
2022/04/10 07:29:22;;;;;;;5.28;4.95;;;6.20;99.90;;;;;;5008168;28;20110;-73
2022/04/10 07:31:47;;;;;;;5.75;3.88;;;6.30;99.90;;;;;;5004152;28;20045;-73
2022/04/10 07:34:13;;;;;;;4.20;3.90;;;6.20;99.90;;;;;;5009264;28;20565;-72
2022/04/10 07:36:39;;;;;;;4.80;4.40;;;6.20;99.90;;;;;;4991491;28;20073;-73
2022/04/10 07:39:05;;;;;;;4.55;4.25;;;6.20;99.90;;;;;;4992384;28;20080;-73
2022/04/10 07:41:30;;;;;;;3.17;2.97;;;6.20;99.90;;;;;;4988065;28;20069;-73
2022/04/10 07:43:56;;;;;;;4.53;4.13;;;6.10;99.90;;;;;;5006399;28;20372;-74
2022/04/10 07:49:06;;;;;;;2.80;2.60;;;6.20;99.90;;;;;;5007955;28;20045;-73
2022/04/10 07:51:32;;;;;;;4.55;3.50;;;6.30;99.90;;;;;;4991889;28;20052;-73
2022/04/10 07:53:58;;;;;;;5.85;3.53;;;6.30;99.90;;;;;;5008540;28;20041;-73
2022/04/10 07:56:24;;;;;;;3.53;3.33;;;6.40;99.90;;;;;;5008190;28;20528;-73
2022/04/10 07:58:49;;;;;;;13.10;3.10;;;6.50;99.90;;;;;;5005103;28;20124;-74
2022/04/10 08:01:15;;;;;;;7.90;3.40;;;6.70;99.90;;;;;;5008090;28;20128;-73
2022/04/10 08:03:41;;;;;;;2.30;2.20;;;6.90;99.90;;;;;;5007833;28;20524;-74
2022/04/10 08:06:07;;;;;;;2.13;2.03;;;7.00;99.90;;;;;;5006022;28;20509;-73
2022/04/10 08:08:32;;;;;;;1.63;1.60;;;7.10;99.90;;;;;;5008247;28;20041;-73
2022/04/10 08:10:58;;;;;;;2.47;1.63;;;7.10;99.90;;;;;;5005591;28;20052;-74
2022/04/10 08:13:23;;;;;;;1.75;1.25;;;7.20;99.90;;;;;;5004694;28;20492;-74
2022/04/10 08:15:49;;;;;;;3.55;1.70;;;7.30;99.90;;;;;;5003727;28;20073;-74
2022/04/10 08:18:15;;;;;;;3.63;1.52;;;7.40;99.90;;;;;;4990696;28;20053;-73
2022/04/10 08:20:41;;;;;;;10.10;2.88;;;7.40;99.90;;;;;;4991031;28;20533;-72
2022/04/10 08:23:08;;;;;;;8.35;2.00;;;7.60;99.90;;;;;;5006241;28;20550;-73
2022/04/10 08:25:34;;;;;;;2.53;2.15;;;7.80;99.90;;;;;;5005933;28;20049;-73
2022/04/10 08:28:00;;;;;;;4.60;1.70;;;8.10;99.90;;;;;;5004918;28;20053;-73
2022/04/10 08:30:26;;;;;;;5.68;1.30;;;8.10;99.90;;;;;;5005769;28;20071;-72
2022/04/10 08:32:52;;;;;;;1.48;1.10;;;8.00;99.90;;;;;;4990817;28;20171;-73
2022/04/10 08:35:18;;;;;;;1.55;1.30;;;8.00;99.90;;;;;;4987647;28;20068;-73
2022/04/10 08:37:44;;;;;;;6.60;2.05;;;8.00;99.90;;;;;;5007158;28;20501;-73
2022/04/10 08:40:11;;;;;;;3.03;1.00;;;8.20;99.90;;;;;;5007812;28;20034;-72
2022/04/10 08:42:37;;;;;;;1.52;1.10;;;8.40;99.90;;;;;;5006233;28;20144;-73
2022/04/10 08:45:05;;;;;;;3.28;0.82;;;8.50;99.90;;;;;;5004448;28;20087;-72
2022/04/10 08:47:32;;;;;;;3.20;1.10;;;8.50;99.90;;;;;;4991578;28;20452;-73
2022/04/10 08:50:00;;;;;;;6.38;5.60;;;8.50;99.90;;;;;;5006592;28;20041;-73
2022/04/10 08:52:26;;;;;;;3.00;0.80;;;8.50;99.90;;;;;;5023677;28;20045;-73
2022/04/10 08:54:52;;;;;;;5.03;1.10;;;8.70;99.90;;;;;;5010537;28;20493;-73
2022/04/10 08:57:18;;;;;;;6.88;1.77;;;8.70;99.90;;;;;;5009323;28;20048;-74
2022/04/10 08:59:44;;;;;;;3.75;1.60;;;8.60;99.90;;;;;;5009771;28;20037;-73
2022/04/10 09:02:11;;;;;;;4.25;1.48;;;8.90;99.90;;;;;;4993671;28;20398;-73
2022/04/10 09:04:38;;;;;;;4.90;1.05;;;9.10;99.90;;;;;;5007573;28;20115;-73
2022/04/10 09:07:07;;;;;;;1.45;0.57;;;9.20;99.90;;;;;;4990499;28;20041;-73
2022/04/10 09:09:34;;;;;;;0.73;0.63;;;9.10;99.90;;;;;;5007865;28;20077;-72
2022/04/10 09:12:01;;;;;;;4.40;1.85;;;9.00;99.90;;;;;;5010287;28;20041;-73
2022/04/10 09:14:29;;;;;;;5.57;1.75;;;9.50;99.90;;;;;;5009339;28;20136;-73
2022/04/10 09:17:19;;;;;;;0.85;0.85;;;10.20;99.90;;;;;;5006743;28;20413;-73
2022/04/10 09:19:50;;;;;;;0.50;0.50;;;10.60;99.90;;;;;;5023872;28;20044;-74
2022/04/10 09:22:25;;;;;;;4.97;0.65;;;11.20;99.90;;;;;;4988452;28;20050;-73
2022/04/10 09:25:07;;;;;;;3.55;0.75;;;11.60;99.90;;;;;;5007857;28;20565;-73
2022/04/10 09:27:44;;;;;;;0.77;0.77;;;11.80;99.90;;;;;;5012341;28;20051;-73
2022/04/10 09:30:15;;;;;;;3.65;0.82;;;12.00;99.90;;;;;;4996323;28;20607;-74
2022/04/10 09:32:42;;;;;;;1.63;1.15;;;12.50;99.90;;;;;;5007537;28;20125;-74
2022/04/10 09:35:12;;;;;;;3.47;1.20;;;12.10;99.80;;;;;;5007135;28;20044;-74
2022/04/10 09:37:43;;;;;;;3.33;2.05;;;11.60;99.90;;;;;;4987974;28;20397;-74
2022/04/10 09:40:32;;;;;;;4.72;1.17;;;10.90;99.90;;;;;;5006359;28;20120;-73
2022/04/10 09:43:04;;;;;;;2.33;1.50;;;10.10;99.90;;;;;;5007395;28;20048;-73
2022/04/10 09:45:41;;;;;;;6.38;1.35;;;10.10;99.90;;;;;;5006938;28;20060;-74
2022/04/10 09:48:26;;;;;;;5.97;0.85;;;10.10;99.90;;;;;;5009510;28;20073;-73
2022/04/10 09:50:56;;;;;;;6.47;1.48;;;9.70;99.90;;;;;;5009602;28;20041;-74
2022/04/10 09:53:22;;;;;;;0.55;0.55;;;9.80;99.90;;;;;;5022584;28;20371;-73
2022/04/10 09:56:00;;;;;;;1.35;0.85;;;10.10;99.90;;;;;;5009524;28;20038;-73
2022/04/10 09:58:26;;;;;;;6.93;1.00;;;11.10;99.90;;;;;;5008912;28;20037;-73
2022/04/10 10:00:54;;;;;;;3.13;0.88;;;11.30;98.10;;;;;;5008427;28;20033;-73
2022/04/10 10:03:21;;;;;;;1.30;0.50;;;10.90;96.70;;;;;;5009785;28;20119;-74
2022/04/10 10:05:49;;;;;;;7.78;1.65;;;10.60;99.90;;;;;;5005945;28;20527;-73
2022/04/10 10:08:17;;;;;;;1.05;1.00;;;10.40;99.90;;;;;;4994113;28;20397;-73
2022/04/10 10:10:43;;;;;;;2.90;1.92;;;10.40;99.90;;;;;;4994228;28;20053;-74
2022/04/10 10:13:09;;;;;;;2.72;1.20;;;11.00;99.90;;;;;;4990325;28;20050;-73
2022/04/10 10:15:35;;;;;;;2.22;1.17;;;11.10;98.80;;;;;;5009435;28;20560;-73
2022/04/10 10:18:03;;;;;;;3.10;1.63;;;11.00;97.40;;;;;;5021080;28;20086;-73
2022/04/10 10:20:29;;;;;;;3.55;1.48;;;10.60;98.90;;;;;;5020371;28;20048;-72
2022/04/10 10:22:55;;;;;;;5.30;1.55;;;9.80;99.70;;;;;;5027127;28;20440;-71
2022/04/10 10:25:27;;;;;;;3.78;1.52;;;9.30;99.90;;;;;;4993411;28;20087;-72
2022/04/10 10:28:08;;;;;;;3.63;1.95;;;9.20;99.90;;;;;;5026051;28;20073;-72
2022/04/10 10:30:52;;;;;;;5.45;0.77;;;9.40;99.90;;;;;;5022545;28;20048;-73
2022/04/10 10:33:21;;;;;;;4.18;1.50;;;9.70;99.90;;;;;;5009510;28;20041;-72
2022/04/10 10:35:51;;;;;;;5.45;2.22;;;10.10;99.90;;;;;;5009555;28;20439;-72
2022/04/10 10:38:28;;;;;;;1.33;0.63;;;10.40;99.90;;;;;;5005438;28;20504;-72
2022/04/10 10:41:16;;;;;;;3.90;0.88;;;10.70;99.90;;;;;;4986217;28;20446;-72
2022/04/10 10:43:42;;;;;;;6.18;1.60;;;10.90;99.90;;;;;;5000425;28;20045;-72
2022/04/10 10:46:34;;;;;;;3.88;1.23;;;11.00;99.90;;;;;;5009340;28;20400;-72
2022/04/10 10:49:19;;;;;;;5.30;1.45;;;10.80;99.90;;;;;;5007694;28;20116;-71
2022/04/10 10:51:47;;;;;;;4.18;1.17;;;10.30;99.90;;;;;;5019576;28;20048;-72
2022/04/10 10:54:21;;;;;;;3.63;0.98;;;10.10;99.90;;;;;;4983084;28;20049;-71
2022/04/10 10:56:47;;;;;;;1.08;0.93;;;10.20;99.90;;;;;;5006715;28;20037;-72
2022/04/10 10:59:24;;;;;;;2.50;0.82;;;10.30;99.90;;;;;;4988295;28;20076;-72
2022/04/10 11:02:12;;;;;;;0.75;0.75;;;10.40;99.90;;;;;;4995903;28;20042;-72
2022/04/10 11:04:46;;;;;;;1.38;0.70;;;10.40;99.90;;;;;;4984383;28;20048;-72
2022/04/10 11:07:24;;;;;;;1.77;0.85;;;10.40;99.90;;;;;;4990983;28;20679;-72
2022/04/10 11:09:53;;;;;;;0.85;0.75;;;10.20;99.70;;;;;;4992552;28;20042;-72
2022/04/10 11:12:21;;;;;;;1.45;0.93;;;10.10;99.90;;;;;;4988697;28;20042;-72
2022/04/10 11:14:51;;;;;;;6.03;1.73;;;10.00;99.80;;;;;;5008045;28;20507;-72
2022/04/10 11:17:19;;;;;;;3.85;1.02;;;9.90;99.30;;;;;;4990147;28;20048;-72
2022/04/10 11:19:47;;;;;;;0.65;0.60;;;9.70;99.90;;;;;;4991167;28;20529;-72
2022/04/10 11:22:34;;;;;;;1.75;0.85;;;9.70;99.90;;;;;;5008761;28;20069;-72
2022/04/10 11:25:04;;;;;;;3.58;1.08;;;10.00;99.90;;;;;;5002836;28;20046;-73
2022/04/10 11:27:56;;;;;;;3.92;0.88;;;10.60;99.10;;;;;;4985753;28;20041;-72
2022/04/10 11:30:31;;;;;;;14.32;1.83;;;10.90;98.70;;;;;;5023532;28;20045;-73
2022/04/10 11:32:57;;;;;;;1.50;1.20;;;11.40;99.30;;;;;;4989310;28;20760;-72
2022/04/10 11:35:34;;;;;;;3.88;1.25;;;11.80;99.40;;;;;;5008389;28;20102;-72
2022/04/10 11:38:01;;;;;;;1.48;0.65;;;11.80;89.70;;;;;;5004294;28;20048;-73
2022/04/10 11:40:31;;;;;;;1.77;1.08;;;11.30;90.10;;;;;;4989624;28;20468;-73
2022/04/10 11:42:59;;;;;;;2.03;1.05;;;11.30;94.50;;;;;;5008016;28;20091;-73
2022/04/10 11:45:27;;;;;;;1.52;1.00;;;11.60;95.70;;;;;;5008719;28;20033;-72
2022/04/10 11:47:53;;;;;;;1.48;0.82;;;11.70;94.50;;;;;;5004722;28;20045;-73
2022/04/10 11:50:26;;;;;;;7.72;1.40;;;11.60;91.20;;;;;;5007908;28;20507;-72
2022/04/10 11:52:56;;;;;;;1.65;0.57;;;11.20;87.80;;;;;;5005876;28;20044;-72
2022/04/10 11:55:28;;;;;;;3.13;0.88;;;10.60;89.80;;;;;;5002561;28;20045;-73
2022/04/10 11:57:54;;;;;;;3.13;0.87;;;10.40;93.00;;;;;;5007006;28;20049;-72
2022/04/10 12:00:20;;;;;;;6.13;2.75;;;10.60;94.60;;;;;;5008160;28;20040;-72
2022/04/10 12:02:48;;;;;;;1.55;0.88;;;11.00;94.90;;;;;;5007297;28;20132;-72
2022/04/10 12:05:14;;;;;;;13.60;1.17;;;11.30;90.10;;;;;;5005993;28;20041;-72
2022/04/10 12:07:41;;;;;;;3.13;1.13;;;11.40;92.90;;;;;;4991642;28;20487;-72
2022/04/10 12:10:07;;;;;;;0.30;0.30;;;11.50;91.70;;;;;;5003314;28;20133;-73
2022/04/10 12:12:37;;;;;;;1.45;0.85;;;11.40;90.10;;;;;;5008752;28;20548;-72
2022/04/10 12:15:18;;;;;;;2.53;1.33;;;11.20;91.50;;;;;;5024631;28;20054;-72
2022/04/10 12:17:44;;;;;;;2.58;0.95;;;11.20;92.70;;;;;;4999047;28;20045;-72
2022/04/10 12:20:10;;;;;;;1.73;0.77;;;11.10;90.80;;;;;;4997214;28;20048;-73
2022/04/10 12:22:36;;;;;;;0.30;0.30;;;10.90;90.70;;;;;;5013696;28;20481;-73
2022/04/10 12:25:02;;;;;;;2.53;1.33;;;11.10;93.10;;;;;;4983631;28;20069;-72
2022/04/10 12:27:28;;;;;;;4.60;1.25;;;11.50;92.10;;;;;;4996569;28;20087;-72
2022/04/10 12:29:55;;;;;;;0.80;0.65;;;11.80;89.00;;;;;;5011785;28;20517;-72
2022/04/10 12:32:22;;;;;;;1.65;0.73;;;11.80;88.90;;;;;;4993791;28;20080;-72
2022/04/10 12:34:47;;;;;;;2.70;1.23;;;11.80;85.30;;;;;;5010687;28;20505;-73
2022/04/10 12:37:14;;;;;;;2.47;1.23;;;11.90;77.50;;;;;;5012213;28;20044;-72
2022/04/10 12:39:41;;;;;;;3.83;1.25;;;11.70;81.70;;;;;;5007831;28;20044;-72
2022/04/10 12:42:13;;;;;;;0.30;0.30;;;11.50;84.60;;;;;;5011931;28;20045;-72
2022/04/10 12:44:40;;;;;;;1.90;0.80;;;11.20;86.70;;;;;;5012119;28;20052;-73
2022/04/10 12:47:08;;;;;;;2.53;1.63;;;10.80;84.90;;;;;;4993326;28;20463;-72
2022/04/10 12:49:34;;;;;;;3.67;0.85;;;10.70;89.10;;;;;;4991365;28;20124;-72
2022/04/10 12:52:05;;;;;;;2.38;1.33;;;10.80;90.70;;;;;;5007822;28;20049;-72
2022/04/10 12:54:38;;;;;;;2.60;1.27;;;10.80;90.60;;;;;;4994380;28;20037;-72
2022/04/10 12:57:24;;;;;;;3.95;0.98;;;10.90;90.70;;;;;;5010241;28;20045;-72
2022/04/10 12:59:50;;;;;;;2.30;1.50;;;10.80;90.40;;;;;;5002836;28;20046;-71